sensor_id;sensor_type;location;lat;lon;timestamp;temperature;humidity
40822;DHT22;26542;50.836;5.356;2023-02-28T00:01:20;0.90;99.90
40822;DHT22;26542;50.836;5.356;2023-02-28T00:03:48;1.00;99.90
40822;DHT22;26542;50.836;5.356;2023-02-28T00:06:17;0.70;99.90
40822;DHT22;26542;50.836;5.356;2023-02-28T00:08:43;0.70;99.90
40822;DHT22;26542;50.836;5.356;2023-02-28T00:11:11;0.70;99.90
40822;DHT22;26542;50.836;5.356;2023-02-28T00:13:40;0.80;99.90
40822;DHT22;26542;50.836;5.356;2023-02-28T00:16:11;0.70;99.90
40822;DHT22;26542;50.836;5.356;2023-02-28T00:18:37;0.60;99.90
40822;DHT22;26542;50.836;5.356;2023-02-28T00:21:06;1.00;99.90
40822;DHT22;26542;50.836;5.356;2023-02-28T00:23:34;0.60;99.90
40822;DHT22;26542;50.836;5.356;2023-02-28T00:26:01;0.50;99.90
40822;DHT22;26542;50.836;5.356;2023-02-28T00:28:26;0.60;99.90
40822;DHT22;26542;50.836;5.356;2023-02-28T00:30:52;0.50;99.90
40822;DHT22;26542;50.836;5.356;2023-02-28T00:33:18;0.50;99.90
40822;DHT22;26542;50.836;5.356;2023-02-28T00:35:44;0.40;99.90
40822;DHT22;26542;50.836;5.356;2023-02-28T00:38:12;0.40;99.90
40822;DHT22;26542;50.836;5.356;2023-02-28T00:40:38;0.40;99.90
40822;DHT22;26542;50.836;5.356;2023-02-28T00:43:04;0.40;99.90
40822;DHT22;26542;50.836;5.356;2023-02-28T00:45:32;0.30;99.90
40822;DHT22;26542;50.836;5.356;2023-02-28T00:47:58;0.90;99.90
40822;DHT22;26542;50.836;5.356;2023-02-28T00:50:26;0.20;99.90
40822;DHT22;26542;50.836;5.356;2023-02-28T00:52:51;0.20;99.90
40822;DHT22;26542;50.836;5.356;2023-02-28T00:55:19;0.20;99.90
40822;DHT22;26542;50.836;5.356;2023-02-28T00:57:45;0.10;99.90
40822;DHT22;26542;50.836;5.356;2023-02-28T01:00:17;0.00;99.90
40822;DHT22;26542;50.836;5.356;2023-02-28T01:02:43;0.00;99.90
40822;DHT22;26542;50.836;5.356;2023-02-28T01:05:08;0.10;99.90
40822;DHT22;26542;50.836;5.356;2023-02-28T01:07:34;0.00;99.90
40822;DHT22;26542;50.836;5.356;2023-02-28T01:10:00;0.00;99.90
40822;DHT22;26542;50.836;5.356;2023-02-28T01:12:25;-0.10;99.90
40822;DHT22;26542;50.836;5.356;2023-02-28T01:14:51;-0.10;99.90
40822;DHT22;26542;50.836;5.356;2023-02-28T01:17:17;-0.10;99.90
40822;DHT22;26542;50.836;5.356;2023-02-28T01:19:42;-0.10;99.90
40822;DHT22;26542;50.836;5.356;2023-02-28T01:22:08;-0.10;99.90
40822;DHT22;26542;50.836;5.356;2023-02-28T01:24:34;-0.10;99.90
40822;DHT22;26542;50.836;5.356;2023-02-28T01:27:02;-0.10;99.90
40822;DHT22;26542;50.836;5.356;2023-02-28T01:29:28;-0.20;99.90
40822;DHT22;26542;50.836;5.356;2023-02-28T01:31:53;-0.30;99.90
40822;DHT22;26542;50.836;5.356;2023-02-28T01:34:19;-0.30;99.90
40822;DHT22;26542;50.836;5.356;2023-02-28T01:36:47;-0.20;99.90
40822;DHT22;26542;50.836;5.356;2023-02-28T01:39:12;-0.40;99.90
40822;DHT22;26542;50.836;5.356;2023-02-28T01:41:39;-0.40;99.90
40822;DHT22;26542;50.836;5.356;2023-02-28T01:46:54;-0.50;99.90
40822;DHT22;26542;50.836;5.356;2023-02-28T01:49:20;-0.50;99.90
40822;DHT22;26542;50.836;5.356;2023-02-28T01:51:51;0.20;99.90
40822;DHT22;26542;50.836;5.356;2023-02-28T01:54:30;-0.50;99.90
40822;DHT22;26542;50.836;5.356;2023-02-28T01:57:10;-0.50;99.90
40822;DHT22;26542;50.836;5.356;2023-02-28T01:59:40;-0.50;99.90
40822;DHT22;26542;50.836;5.356;2023-02-28T02:02:20;-0.60;99.90
40822;DHT22;26542;50.836;5.356;2023-02-28T02:05:12;-0.60;99.90
40822;DHT22;26542;50.836;5.356;2023-02-28T02:07:45;-0.70;99.90
40822;DHT22;26542;50.836;5.356;2023-02-28T02:10:16;-0.70;99.90
40822;DHT22;26542;50.836;5.356;2023-02-28T02:18:12;-0.60;99.90
40822;DHT22;26542;50.836;5.356;2023-02-28T02:21:07;-0.60;99.90
40822;DHT22;26542;50.836;5.356;2023-02-28T02:27:08;-0.60;99.90
40822;DHT22;26542;50.836;5.356;2023-02-28T02:37:50;-0.50;99.90
40822;DHT22;26542;50.836;5.356;2023-02-28T02:40:20;-0.50;99.90
40822;DHT22;26542;50.836;5.356;2023-02-28T02:42:55;-0.50;99.90
40822;DHT22;26542;50.836;5.356;2023-02-28T02:45:36;-0.50;99.90
40822;DHT22;26542;50.836;5.356;2023-02-28T02:48:06;-0.50;99.90
40822;DHT22;26542;50.836;5.356;2023-02-28T02:53:36;-0.50;99.90
40822;DHT22;26542;50.836;5.356;2023-02-28T02:56:08;0.00;99.90
40822;DHT22;26542;50.836;5.356;2023-02-28T02:58:38;-0.60;99.90
40822;DHT22;26542;50.836;5.356;2023-02-28T03:01:12;-0.60;99.90
40822;DHT22;26542;50.836;5.356;2023-02-28T03:03:40;-0.60;99.90
40822;DHT22;26542;50.836;5.356;2023-02-28T03:06:06;0.10;99.90
40822;DHT22;26542;50.836;5.356;2023-02-28T03:08:36;-0.70;99.90
40822;DHT22;26542;50.836;5.356;2023-02-28T03:11:10;-0.80;99.90
40822;DHT22;26542;50.836;5.356;2023-02-28T03:24:58;-0.90;99.90
40822;DHT22;26542;50.836;5.356;2023-02-28T03:30:41;-1.00;99.90
40822;DHT22;26542;50.836;5.356;2023-02-28T03:35:45;-0.60;99.90
40822;DHT22;26542;50.836;5.356;2023-02-28T03:38:21;-1.00;99.90
40822;DHT22;26542;50.836;5.356;2023-02-28T03:41:04;-1.10;99.90
40822;DHT22;26542;50.836;5.356;2023-02-28T03:43:34;-1.10;99.90
40822;DHT22;26542;50.836;5.356;2023-02-28T03:46:07;-1.00;99.90
40822;DHT22;26542;50.836;5.356;2023-02-28T03:48:47;-0.70;99.90
40822;DHT22;26542;50.836;5.356;2023-02-28T03:51:23;-1.10;99.90
40822;DHT22;26542;50.836;5.356;2023-02-28T03:53:57;-0.70;99.90
40822;DHT22;26542;50.836;5.356;2023-02-28T03:56:33;-0.90;99.90
40822;DHT22;26542;50.836;5.356;2023-02-28T03:59:34;-1.00;99.90
40822;DHT22;26542;50.836;5.356;2023-02-28T04:02:02;-0.90;99.90
40822;DHT22;26542;50.836;5.356;2023-02-28T04:04:28;-0.60;99.90
40822;DHT22;26542;50.836;5.356;2023-02-28T04:07:05;-1.00;99.90
40822;DHT22;26542;50.836;5.356;2023-02-28T04:09:31;-0.70;99.90
40822;DHT22;26542;50.836;5.356;2023-02-28T04:11:56;-1.00;99.90
40822;DHT22;26542;50.836;5.356;2023-02-28T04:14:25;-1.00;99.90
40822;DHT22;26542;50.836;5.356;2023-02-28T04:16:50;-1.00;99.90
40822;DHT22;26542;50.836;5.356;2023-02-28T04:19:17;-1.00;99.90
40822;DHT22;26542;50.836;5.356;2023-02-28T04:21:48;-0.90;99.90
40822;DHT22;26542;50.836;5.356;2023-02-28T04:24:16;-0.90;99.90
40822;DHT22;26542;50.836;5.356;2023-02-28T04:26:46;-0.80;99.90
40822;DHT22;26542;50.836;5.356;2023-02-28T04:29:17;-1.00;99.90
40822;DHT22;26542;50.836;5.356;2023-02-28T04:31:46;-1.00;99.90
40822;DHT22;26542;50.836;5.356;2023-02-28T04:34:13;-0.90;99.90
40822;DHT22;26542;50.836;5.356;2023-02-28T04:36:39;-0.80;99.90
40822;DHT22;26542;50.836;5.356;2023-02-28T04:39:05;-0.80;99.90
40822;DHT22;26542;50.836;5.356;2023-02-28T04:41:35;-0.30;99.90
40822;DHT22;26542;50.836;5.356;2023-02-28T04:44:00;-0.80;99.90
40822;DHT22;26542;50.836;5.356;2023-02-28T04:46:28;-0.80;99.90
40822;DHT22;26542;50.836;5.356;2023-02-28T04:48:54;-0.80;99.90
40822;DHT22;26542;50.836;5.356;2023-02-28T04:51:22;-0.70;99.90
40822;DHT22;26542;50.836;5.356;2023-02-28T04:53:48;-0.90;99.90
40822;DHT22;26542;50.836;5.356;2023-02-28T04:56:16;-0.10;99.90
40822;DHT22;26542;50.836;5.356;2023-02-28T04:58:42;-0.30;99.90
40822;DHT22;26542;50.836;5.356;2023-02-28T05:01:35;-0.60;99.90
40822;DHT22;26542;50.836;5.356;2023-02-28T05:04:04;-0.90;99.90
40822;DHT22;26542;50.836;5.356;2023-02-28T05:06:33;-0.80;99.90
40822;DHT22;26542;50.836;5.356;2023-02-28T05:08:58;-0.10;99.90
40822;DHT22;26542;50.836;5.356;2023-02-28T05:11:25;-0.80;99.90
40822;DHT22;26542;50.836;5.356;2023-02-28T05:13:58;-0.80;99.90
40822;DHT22;26542;50.836;5.356;2023-02-28T05:16:23;-0.90;99.90
40822;DHT22;26542;50.836;5.356;2023-02-28T05:18:49;-0.80;99.90
40822;DHT22;26542;50.836;5.356;2023-02-28T05:21:30;-0.90;99.90
40822;DHT22;26542;50.836;5.356;2023-02-28T05:23:59;-1.00;99.90
40822;DHT22;26542;50.836;5.356;2023-02-28T05:26:26;-1.00;99.90
40822;DHT22;26542;50.836;5.356;2023-02-28T05:28:53;-1.50;99.90
40822;DHT22;26542;50.836;5.356;2023-02-28T05:31:19;-0.60;99.90
40822;DHT22;26542;50.836;5.356;2023-02-28T05:33:45;-1.10;99.90
40822;DHT22;26542;50.836;5.356;2023-02-28T05:36:11;-0.80;99.90
40822;DHT22;26542;50.836;5.356;2023-02-28T05:38:39;-1.90;99.90
40822;DHT22;26542;50.836;5.356;2023-02-28T05:41:06;-1.20;99.90
40822;DHT22;26542;50.836;5.356;2023-02-28T05:43:32;-1.20;99.90
40822;DHT22;26542;50.836;5.356;2023-02-28T05:46:10;-0.90;99.90
40822;DHT22;26542;50.836;5.356;2023-02-28T05:48:37;-1.30;99.90
40822;DHT22;26542;50.836;5.356;2023-02-28T05:51:04;-1.30;99.90
40822;DHT22;26542;50.836;5.356;2023-02-28T05:53:30;-1.30;99.90
40822;DHT22;26542;50.836;5.356;2023-02-28T05:55:59;-1.40;99.90
40822;DHT22;26542;50.836;5.356;2023-02-28T05:58:25;-1.00;99.90
40822;DHT22;26542;50.836;5.356;2023-02-28T06:01:00;-1.50;99.90
40822;DHT22;26542;50.836;5.356;2023-02-28T06:03:28;-1.60;99.90
40822;DHT22;26542;50.836;5.356;2023-02-28T06:05:54;-1.50;99.90
40822;DHT22;26542;50.836;5.356;2023-02-28T06:08:26;-1.50;99.90
40822;DHT22;26542;50.836;5.356;2023-02-28T06:10:54;-1.40;99.90
40822;DHT22;26542;50.836;5.356;2023-02-28T06:13:24;-1.60;99.90
40822;DHT22;26542;50.836;5.356;2023-02-28T06:15:50;-1.60;99.90
40822;DHT22;26542;50.836;5.356;2023-02-28T06:18:20;-1.50;99.90
40822;DHT22;26542;50.836;5.356;2023-02-28T06:20:53;-1.40;99.90
40822;DHT22;26542;50.836;5.356;2023-02-28T06:23:20;-1.40;99.90
40822;DHT22;26542;50.836;5.356;2023-02-28T06:25:46;-1.50;99.90
40822;DHT22;26542;50.836;5.356;2023-02-28T06:28:12;-1.50;99.90
40822;DHT22;26542;50.836;5.356;2023-02-28T06:30:42;-1.60;99.90
40822;DHT22;26542;50.836;5.356;2023-02-28T06:33:10;-0.80;99.90
40822;DHT22;26542;50.836;5.356;2023-02-28T06:35:36;-1.60;99.90
40822;DHT22;26542;50.836;5.356;2023-02-28T06:38:01;-1.20;99.90
40822;DHT22;26542;50.836;5.356;2023-02-28T06:40:27;-1.40;99.90
40822;DHT22;26542;50.836;5.356;2023-02-28T06:42:57;-1.60;99.90
40822;DHT22;26542;50.836;5.356;2023-02-28T06:45:22;-1.10;99.90
40822;DHT22;26542;50.836;5.356;2023-02-28T06:47:48;-1.40;99.90
40822;DHT22;26542;50.836;5.356;2023-02-28T06:50:19;-1.60;99.90
40822;DHT22;26542;50.836;5.356;2023-02-28T06:52:48;-1.50;99.90
40822;DHT22;26542;50.836;5.356;2023-02-28T06:55:19;-1.50;99.90
40822;DHT22;26542;50.836;5.356;2023-02-28T06:57:45;-0.70;99.90
40822;DHT22;26542;50.836;5.356;2023-02-28T07:00:11;-1.40;99.90
40822;DHT22;26542;50.836;5.356;2023-02-28T07:02:37;-1.50;99.90
40822;DHT22;26542;50.836;5.356;2023-02-28T07:05:04;-1.40;99.90
40822;DHT22;26542;50.836;5.356;2023-02-28T07:07:32;-1.40;99.90
40822;DHT22;26542;50.836;5.356;2023-02-28T07:10:04;-1.20;99.90
40822;DHT22;26542;50.836;5.356;2023-02-28T07:12:32;-1.40;99.90
40822;DHT22;26542;50.836;5.356;2023-02-28T07:15:05;-1.40;99.90
40822;DHT22;26542;50.836;5.356;2023-02-28T07:17:31;-1.30;99.90
40822;DHT22;26542;50.836;5.356;2023-02-28T07:19:59;-1.30;99.90
40822;DHT22;26542;50.836;5.356;2023-02-28T07:22:25;-0.80;99.90
40822;DHT22;26542;50.836;5.356;2023-02-28T07:24:50;-1.10;99.90
40822;DHT22;26542;50.836;5.356;2023-02-28T07:27:17;-0.80;99.90
40822;DHT22;26542;50.836;5.356;2023-02-28T07:29:49;-1.00;99.90
40822;DHT22;26542;50.836;5.356;2023-02-28T07:32:15;-0.60;99.90
40822;DHT22;26542;50.836;5.356;2023-02-28T07:34:41;-0.10;99.90
40822;DHT22;26542;50.836;5.356;2023-02-28T07:37:09;-0.80;99.90
40822;DHT22;26542;50.836;5.356;2023-02-28T07:39:34;-0.30;99.90
40822;DHT22;26542;50.836;5.356;2023-02-28T07:42:03;-0.20;99.90
40822;DHT22;26542;50.836;5.356;2023-02-28T07:44:31;-0.50;99.90
40822;DHT22;26542;50.836;5.356;2023-02-28T07:46:58;0.10;99.90
40822;DHT22;26542;50.836;5.356;2023-02-28T07:49:23;-0.30;99.90
40822;DHT22;26542;50.836;5.356;2023-02-28T07:51:54;0.00;99.90
40822;DHT22;26542;50.836;5.356;2023-02-28T07:54:22;0.00;99.90
40822;DHT22;26542;50.836;5.356;2023-02-28T07:56:50;0.10;99.90
40822;DHT22;26542;50.836;5.356;2023-02-28T07:59:15;0.20;99.90
40822;DHT22;26542;50.836;5.356;2023-02-28T08:01:43;0.60;99.90
40822;DHT22;26542;50.836;5.356;2023-02-28T08:04:10;0.50;99.90
40822;DHT22;26542;50.836;5.356;2023-02-28T08:06:35;0.60;99.90
40822;DHT22;26542;50.836;5.356;2023-02-28T08:09:04;0.70;99.90
40822;DHT22;26542;50.836;5.356;2023-02-28T08:11:31;1.10;99.90
40822;DHT22;26542;50.836;5.356;2023-02-28T08:13:57;0.90;99.90
40822;DHT22;26542;50.836;5.356;2023-02-28T08:16:23;0.90;99.90
40822;DHT22;26542;50.836;5.356;2023-02-28T08:18:52;1.00;99.90
40822;DHT22;26542;50.836;5.356;2023-02-28T08:21:19;1.30;99.90
40822;DHT22;26542;50.836;5.356;2023-02-28T08:23:47;1.40;99.90
40822;DHT22;26542;50.836;5.356;2023-02-28T08:26:16;1.40;99.90
40822;DHT22;26542;50.836;5.356;2023-02-28T08:28:42;1.50;99.90
40822;DHT22;26542;50.836;5.356;2023-02-28T08:31:12;1.60;99.90
40822;DHT22;26542;50.836;5.356;2023-02-28T08:33:40;1.70;99.90
40822;DHT22;26542;50.836;5.356;2023-02-28T08:36:08;1.80;99.90
40822;DHT22;26542;50.836;5.356;2023-02-28T08:38:35;1.80;99.90
40822;DHT22;26542;50.836;5.356;2023-02-28T08:41:05;1.80;99.90
40822;DHT22;26542;50.836;5.356;2023-02-28T08:43:34;2.00;99.90
40822;DHT22;26542;50.836;5.356;2023-02-28T08:46:00;2.20;99.90
40822;DHT22;26542;50.836;5.356;2023-02-28T08:48:29;2.30;99.90
40822;DHT22;26542;50.836;5.356;2023-02-28T08:51:07;2.40;99.90
40822;DHT22;26542;50.836;5.356;2023-02-28T08:53:37;2.50;99.90
40822;DHT22;26542;50.836;5.356;2023-02-28T08:56:06;2.60;99.90
40822;DHT22;26542;50.836;5.356;2023-02-28T08:58:32;2.80;99.90
40822;DHT22;26542;50.836;5.356;2023-02-28T09:01:17;2.80;99.90
40822;DHT22;26542;50.836;5.356;2023-02-28T09:03:46;2.90;99.90
40822;DHT22;26542;50.836;5.356;2023-02-28T09:06:12;3.00;99.90
40822;DHT22;26542;50.836;5.356;2023-02-28T09:08:41;3.10;99.90
40822;DHT22;26542;50.836;5.356;2023-02-28T09:11:09;3.20;99.90
40822;DHT22;26542;50.836;5.356;2023-02-28T09:13:36;3.30;99.90
40822;DHT22;26542;50.836;5.356;2023-02-28T09:16:06;3.40;99.90
40822;DHT22;26542;50.836;5.356;2023-02-28T09:18:37;3.40;99.10
40822;DHT22;26542;50.836;5.356;2023-02-28T09:21:15;3.60;99.90
40822;DHT22;26542;50.836;5.356;2023-02-28T09:23:48;3.50;99.50
40822;DHT22;26542;50.836;5.356;2023-02-28T09:26:23;3.70;99.10
40822;DHT22;26542;50.836;5.356;2023-02-28T09:28:53;3.80;98.40
40822;DHT22;26542;50.836;5.356;2023-02-28T09:31:24;3.90;97.80
40822;DHT22;26542;50.836;5.356;2023-02-28T09:33:52;4.00;97.20
40822;DHT22;26542;50.836;5.356;2023-02-28T09:36:22;4.00;97.00
40822;DHT22;26542;50.836;5.356;2023-02-28T09:38:49;3.90;94.60
40822;DHT22;26542;50.836;5.356;2023-02-28T09:41:27;3.90;96.50
40822;DHT22;26542;50.836;5.356;2023-02-28T09:44:02;4.10;95.40
40822;DHT22;26542;50.836;5.356;2023-02-28T09:49:06;4.40;95.50
40822;DHT22;26542;50.836;5.356;2023-02-28T09:51:36;4.50;94.70
40822;DHT22;26542;50.836;5.356;2023-02-28T09:54:05;4.40;93.40
40822;DHT22;26542;50.836;5.356;2023-02-28T09:56:39;4.30;92.70
40822;DHT22;26542;50.836;5.356;2023-02-28T10:04:47;4.30;93.20
40822;DHT22;26542;50.836;5.356;2023-02-28T10:09:55;4.60;92.90
40822;DHT22;26542;50.836;5.356;2023-02-28T10:12:25;4.60;92.50
40822;DHT22;26542;50.836;5.356;2023-02-28T10:14:56;4.60;91.40
40822;DHT22;26542;50.836;5.356;2023-02-28T10:17:37;4.50;91.10
40822;DHT22;26542;50.836;5.356;2023-02-28T10:20:12;4.60;92.20
40822;DHT22;26542;50.836;5.356;2023-02-28T10:23:00;4.70;92.30
40822;DHT22;26542;50.836;5.356;2023-02-28T10:25:34;4.90;92.10
40822;DHT22;26542;50.836;5.356;2023-02-28T10:28:14;5.00;90.80
40822;DHT22;26542;50.836;5.356;2023-02-28T10:30:45;5.10;90.50
40822;DHT22;26542;50.836;5.356;2023-02-28T10:35:45;4.90;88.40
40822;DHT22;26542;50.836;5.356;2023-02-28T10:38:27;4.90;90.40
40822;DHT22;26542;50.836;5.356;2023-02-28T10:41:05;5.00;89.60
40822;DHT22;26542;50.836;5.356;2023-02-28T10:43:33;4.80;87.50
40822;DHT22;26542;50.836;5.356;2023-02-28T10:46:02;4.90;87.90
40822;DHT22;26542;50.836;5.356;2023-02-28T10:51:01;5.10;87.60
40822;DHT22;26542;50.836;5.356;2023-02-28T10:56:21;5.50;88.60
40822;DHT22;26542;50.836;5.356;2023-02-28T10:58:54;5.50;82.50
40822;DHT22;26542;50.836;5.356;2023-02-28T11:01:42;5.30;83.50
40822;DHT22;26542;50.836;5.356;2023-02-28T11:06:44;5.30;82.50
40822;DHT22;26542;50.836;5.356;2023-02-28T11:11:48;5.20;83.50
40822;DHT22;26542;50.836;5.356;2023-02-28T11:14:21;5.30;81.30
40822;DHT22;26542;50.836;5.356;2023-02-28T11:16:47;5.40;80.10
40822;DHT22;26542;50.836;5.356;2023-02-28T11:19:38;5.60;79.50
40822;DHT22;26542;50.836;5.356;2023-02-28T11:22:23;5.60;79.40
40822;DHT22;26542;50.836;5.356;2023-02-28T11:25:01;5.40;80.50
40822;DHT22;26542;50.836;5.356;2023-02-28T11:29:55;5.10;82.70
40822;DHT22;26542;50.836;5.356;2023-02-28T11:32:30;5.20;83.30
40822;DHT22;26542;50.836;5.356;2023-02-28T11:37:31;5.50;81.00
40822;DHT22;26542;50.836;5.356;2023-02-28T11:39:59;5.50;81.10
40822;DHT22;26542;50.836;5.356;2023-02-28T11:45:39;5.80;78.30
40822;DHT22;26542;50.836;5.356;2023-02-28T11:48:11;5.80;76.50
40822;DHT22;26542;50.836;5.356;2023-02-28T11:55:49;6.20;78.10
40822;DHT22;26542;50.836;5.356;2023-02-28T11:58:31;6.20;77.20
40822;DHT22;26542;50.836;5.356;2023-02-28T12:09:00;6.40;75.80
40822;DHT22;26542;50.836;5.356;2023-02-28T12:11:40;6.60;77.50
40822;DHT22;26542;50.836;5.356;2023-02-28T12:17:06;6.50;75.40
40822;DHT22;26542;50.836;5.356;2023-02-28T12:22:31;6.70;75.90
40822;DHT22;26542;50.836;5.356;2023-02-28T12:27:36;6.70;76.30
40822;DHT22;26542;50.836;5.356;2023-02-28T12:30:04;6.80;74.50
40822;DHT22;26542;50.836;5.356;2023-02-28T12:32:36;7.00;76.60
40822;DHT22;26542;50.836;5.356;2023-02-28T12:37:45;7.10;74.50
40822;DHT22;26542;50.836;5.356;2023-02-28T12:40:15;7.10;74.80
40822;DHT22;26542;50.836;5.356;2023-02-28T12:42:48;7.20;75.20
40822;DHT22;26542;50.836;5.356;2023-02-28T12:45:18;7.30;75.90
40822;DHT22;26542;50.836;5.356;2023-02-28T12:47:47;7.30;75.80
40822;DHT22;26542;50.836;5.356;2023-02-28T12:50:16;7.30;76.60
40822;DHT22;26542;50.836;5.356;2023-02-28T12:58:13;7.50;76.40
40822;DHT22;26542;50.836;5.356;2023-02-28T13:09:14;7.40;72.20
40822;DHT22;26542;50.836;5.356;2023-02-28T13:11:45;7.30;75.40
40822;DHT22;26542;50.836;5.356;2023-02-28T13:14:27;7.40;75.30
40822;DHT22;26542;50.836;5.356;2023-02-28T13:16:59;7.50;75.10
40822;DHT22;26542;50.836;5.356;2023-02-28T13:19:30;7.60;74.70
40822;DHT22;26542;50.836;5.356;2023-02-28T13:21:57;7.60;74.90
40822;DHT22;26542;50.836;5.356;2023-02-28T13:26:03;7.70;74.60
40822;DHT22;26542;50.836;5.356;2023-02-28T13:27:40;7.70;74.60
40822;DHT22;26542;50.836;5.356;2023-02-28T13:34:20;7.80;74.80
40822;DHT22;26542;50.836;5.356;2023-02-28T13:36:32;7.60;74.70
40822;DHT22;26542;50.836;5.356;2023-02-28T13:50:18;8.00;73.50
40822;DHT22;26542;50.836;5.356;2023-02-28T14:11:40;8.00;73.30
40822;DHT22;26542;50.836;5.356;2023-02-28T14:14:08;7.90;74.60
40822;DHT22;26542;50.836;5.356;2023-02-28T14:16:46;8.10;74.80
40822;DHT22;26542;50.836;5.356;2023-02-28T14:19:26;8.20;74.40
40822;DHT22;26542;50.836;5.356;2023-02-28T14:32:47;7.80;72.70
40822;DHT22;26542;50.836;5.356;2023-02-28T14:38:05;7.80;74.00
40822;DHT22;26542;50.836;5.356;2023-02-28T14:40:34;7.60;74.60
40822;DHT22;26542;50.836;5.356;2023-02-28T14:43:05;7.60;76.30
40822;DHT22;26542;50.836;5.356;2023-02-28T14:45:35;7.80;74.70
40822;DHT22;26542;50.836;5.356;2023-02-28T14:48:08;7.60;73.90
40822;DHT22;26542;50.836;5.356;2023-02-28T14:50:37;7.50;74.80
40822;DHT22;26542;50.836;5.356;2023-02-28T14:53:03;7.40;74.30
40822;DHT22;26542;50.836;5.356;2023-02-28T14:55:35;7.60;76.10
40822;DHT22;26542;50.836;5.356;2023-02-28T14:58:03;7.60;73.80
40822;DHT22;26542;50.836;5.356;2023-02-28T15:00:42;7.60;76.60
40822;DHT22;26542;50.836;5.356;2023-02-28T15:03:38;7.60;74.00
40822;DHT22;26542;50.836;5.356;2023-02-28T15:08:41;7.60;75.00
40822;DHT22;26542;50.836;5.356;2023-02-28T15:11:33;7.50;75.20
40822;DHT22;26542;50.836;5.356;2023-02-28T15:14:01;7.50;76.00
40822;DHT22;26542;50.836;5.356;2023-02-28T15:16:40;7.50;75.50
40822;DHT22;26542;50.836;5.356;2023-02-28T15:21:48;7.50;74.60
40822;DHT22;26542;50.836;5.356;2023-02-28T15:24:36;7.60;75.10
40822;DHT22;26542;50.836;5.356;2023-02-28T15:27:06;7.70;75.70
40822;DHT22;26542;50.836;5.356;2023-02-28T15:29:41;7.80;73.60
40822;DHT22;26542;50.836;5.356;2023-02-28T15:34:51;7.70;75.20
40822;DHT22;26542;50.836;5.356;2023-02-28T15:40:16;7.70;74.60
40822;DHT22;26542;50.836;5.356;2023-02-28T15:43:19;7.70;75.20
40822;DHT22;26542;50.836;5.356;2023-02-28T15:48:18;7.40;76.30
40822;DHT22;26542;50.836;5.356;2023-02-28T15:50:52;7.50;75.90
40822;DHT22;26542;50.836;5.356;2023-02-28T15:53:26;7.60;75.70
40822;DHT22;26542;50.836;5.356;2023-02-28T15:56:02;7.60;76.70
40822;DHT22;26542;50.836;5.356;2023-02-28T15:58:29;7.60;75.50
40822;DHT22;26542;50.836;5.356;2023-02-28T16:01:19;7.50;76.50
40822;DHT22;26542;50.836;5.356;2023-02-28T16:03:51;7.30;76.10
40822;DHT22;26542;50.836;5.356;2023-02-28T16:06:37;7.30;76.60
40822;DHT22;26542;50.836;5.356;2023-02-28T16:09:09;7.20;77.30
40822;DHT22;26542;50.836;5.356;2023-02-28T16:11:40;7.20;78.40
40822;DHT22;26542;50.836;5.356;2023-02-28T16:14:09;7.20;77.50
40822;DHT22;26542;50.836;5.356;2023-02-28T16:16:42;7.20;78.30
40822;DHT22;26542;50.836;5.356;2023-02-28T16:19:09;7.00;76.90
40822;DHT22;26542;50.836;5.356;2023-02-28T16:21:35;7.20;77.70
40822;DHT22;26542;50.836;5.356;2023-02-28T16:24:00;7.20;77.20
40822;DHT22;26542;50.836;5.356;2023-02-28T16:26:26;7.20;77.40
40822;DHT22;26542;50.836;5.356;2023-02-28T16:28:54;7.10;77.20
40822;DHT22;26542;50.836;5.356;2023-02-28T16:31:20;7.00;77.40
40822;DHT22;26542;50.836;5.356;2023-02-28T16:33:48;6.90;78.40
40822;DHT22;26542;50.836;5.356;2023-02-28T16:36:22;6.90;77.60
40822;DHT22;26542;50.836;5.356;2023-02-28T16:38:51;6.90;78.20
40822;DHT22;26542;50.836;5.356;2023-02-28T16:41:22;6.90;78.50
40822;DHT22;26542;50.836;5.356;2023-02-28T16:43:52;6.90;79.50
40822;DHT22;26542;50.836;5.356;2023-02-28T16:46:22;6.90;80.20
40822;DHT22;26542;50.836;5.356;2023-02-28T16:48:47;6.80;80.40
40822;DHT22;26542;50.836;5.356;2023-02-28T16:51:17;6.90;80.10
40822;DHT22;26542;50.836;5.356;2023-02-28T16:53:44;6.90;80.00
40822;DHT22;26542;50.836;5.356;2023-02-28T16:56:21;6.90;79.10
40822;DHT22;26542;50.836;5.356;2023-02-28T16:58:48;6.90;78.90
40822;DHT22;26542;50.836;5.356;2023-02-28T17:01:15;6.80;79.90
40822;DHT22;26542;50.836;5.356;2023-02-28T17:03:41;6.90;79.10
40822;DHT22;26542;50.836;5.356;2023-02-28T17:06:25;6.80;79.50
40822;DHT22;26542;50.836;5.356;2023-02-28T17:08:53;6.60;79.60
40822;DHT22;26542;50.836;5.356;2023-02-28T17:11:19;6.60;79.70
40822;DHT22;26542;50.836;5.356;2023-02-28T17:13:47;6.50;80.00
40822;DHT22;26542;50.836;5.356;2023-02-28T17:16:38;6.40;80.30
40822;DHT22;26542;50.836;5.356;2023-02-28T17:19:12;6.40;79.90
40822;DHT22;26542;50.836;5.356;2023-02-28T17:21:38;6.20;80.70
40822;DHT22;26542;50.836;5.356;2023-02-28T17:24:04;6.10;81.60
40822;DHT22;26542;50.836;5.356;2023-02-28T17:26:33;6.00;81.10
40822;DHT22;26542;50.836;5.356;2023-02-28T17:28:58;5.90;82.20
40822;DHT22;26542;50.836;5.356;2023-02-28T17:31:27;5.90;82.20
40822;DHT22;26542;50.836;5.356;2023-02-28T17:33:53;5.80;82.20
40822;DHT22;26542;50.836;5.356;2023-02-28T17:36:26;5.80;82.50
40822;DHT22;26542;50.836;5.356;2023-02-28T17:38:57;5.80;83.20
40822;DHT22;26542;50.836;5.356;2023-02-28T17:41:25;5.90;83.20
40822;DHT22;26542;50.836;5.356;2023-02-28T17:43:52;5.80;83.30
40822;DHT22;26542;50.836;5.356;2023-02-28T17:46:25;5.70;83.10
40822;DHT22;26542;50.836;5.356;2023-02-28T17:48:52;5.70;83.60
40822;DHT22;26542;50.836;5.356;2023-02-28T17:51:21;5.60;83.70
40822;DHT22;26542;50.836;5.356;2023-02-28T17:53:49;5.50;83.80
40822;DHT22;26542;50.836;5.356;2023-02-28T17:56:25;5.40;84.20
40822;DHT22;26542;50.836;5.356;2023-02-28T17:58:53;5.50;83.80
40822;DHT22;26542;50.836;5.356;2023-02-28T18:01:20;5.30;84.80
40822;DHT22;26542;50.836;5.356;2023-02-28T18:03:53;5.20;85.00
40822;DHT22;26542;50.836;5.356;2023-02-28T18:06:28;5.20;85.40
40822;DHT22;26542;50.836;5.356;2023-02-28T18:08:56;5.10;85.80
40822;DHT22;26542;50.836;5.356;2023-02-28T18:11:23;5.10;86.10
40822;DHT22;26542;50.836;5.356;2023-02-28T18:13:55;5.00;86.80
40822;DHT22;26542;50.836;5.356;2023-02-28T18:16:24;5.00;87.20
40822;DHT22;26542;50.836;5.356;2023-02-28T18:18:53;4.90;87.50
40822;DHT22;26542;50.836;5.356;2023-02-28T18:21:19;4.80;87.30
40822;DHT22;26542;50.836;5.356;2023-02-28T18:23:47;4.80;87.30
40822;DHT22;26542;50.836;5.356;2023-02-28T18:26:18;4.80;87.70
40822;DHT22;26542;50.836;5.356;2023-02-28T18:28:47;4.80;88.50
40822;DHT22;26542;50.836;5.356;2023-02-28T18:31:17;4.80;88.60
40822;DHT22;26542;50.836;5.356;2023-02-28T18:33:44;4.70;89.00
40822;DHT22;26542;50.836;5.356;2023-02-28T18:36:12;4.70;89.50
40822;DHT22;26542;50.836;5.356;2023-02-28T18:38:38;4.70;90.00
40822;DHT22;26542;50.836;5.356;2023-02-28T18:41:04;4.60;90.20
40822;DHT22;26542;50.836;5.356;2023-02-28T18:43:34;4.50;90.50
40822;DHT22;26542;50.836;5.356;2023-02-28T18:46:09;4.30;90.70
40822;DHT22;26542;50.836;5.356;2023-02-28T18:48:35;4.20;91.10
40822;DHT22;26542;50.836;5.356;2023-02-28T18:51:13;4.20;91.30